logo
Search for airport 
image banner adimage banner adimage banner ad
image banner ad

LKPISK - Pisek - Krasovice

Located in Písek, Czech Republic

ICAO - , IATA -

Data provided by Airmate  

General information

Coordinates: N49°20'22" E14°6'50"
Elevation is 1351 feet MSL.
 
View others Airports in South Bohemian Region

Operational data

Special qualification required
Current time UTC:
Current local time:
Weather at : LKLN - Plzen/Line ( 71 km )
METAR: LKLN 202200Z AUTO VRB02KT 9999 // SCT055 OVC072 02/01 Q1019
View NOTAMs / SUP AIP / TFR affecting this airport [VIEW]
Communications frequencies: [VIEW]

Runways:

RWY identifierQFULength (ft)Width (ft)SurfaceLDA (ft)
16165°190349ASPH1903
34345°190349ASPH1903

Airport contact information

Address: Písek Czech Republic

Satellite view of LKPISK